sensor_id;sensor_type;location;lat;lon;timestamp;temperature;humidity
28530;DHT22;15737;49.760;6.632;2023-08-08T00:01:38;10.50;99.90
28530;DHT22;15737;49.760;6.632;2023-08-08T00:04:16;10.50;99.90
28530;DHT22;15737;49.760;6.632;2023-08-08T00:06:42;10.40;99.90
28530;DHT22;15737;49.760;6.632;2023-08-08T00:09:08;10.40;99.90
28530;DHT22;15737;49.760;6.632;2023-08-08T00:11:34;10.30;99.90
28530;DHT22;15737;49.760;6.632;2023-08-08T00:13:59;10.30;99.90
28530;DHT22;15737;49.760;6.632;2023-08-08T00:16:25;10.30;99.90
28530;DHT22;15737;49.760;6.632;2023-08-08T00:18:50;10.30;99.90
28530;DHT22;15737;49.760;6.632;2023-08-08T00:21:19;10.30;99.90
28530;DHT22;15737;49.760;6.632;2023-08-08T00:23:44;10.30;99.90
28530;DHT22;15737;49.760;6.632;2023-08-08T00:26:10;10.30;99.90
28530;DHT22;15737;49.760;6.632;2023-08-08T00:33:41;10.20;99.90
28530;DHT22;15737;49.760;6.632;2023-08-08T00:36:07;10.20;99.90
28530;DHT22;15737;49.760;6.632;2023-08-08T00:38:32;10.20;99.90
28530;DHT22;15737;49.760;6.632;2023-08-08T00:40:57;10.10;99.90
28530;DHT22;15737;49.760;6.632;2023-08-08T00:43:23;10.10;99.90
28530;DHT22;15737;49.760;6.632;2023-08-08T00:45:48;10.00;99.90
28530;DHT22;15737;49.760;6.632;2023-08-08T00:48:14;10.00;99.90
28530;DHT22;15737;49.760;6.632;2023-08-08T00:50:42;10.00;99.90
28530;DHT22;15737;49.760;6.632;2023-08-08T00:53:08;10.00;99.90
28530;DHT22;15737;49.760;6.632;2023-08-08T00:58:06;9.90;99.90
28530;DHT22;15737;49.760;6.632;2023-08-08T01:00:32;9.90;99.90
28530;DHT22;15737;49.760;6.632;2023-08-08T01:02:57;9.90;99.90
28530;DHT22;15737;49.760;6.632;2023-08-08T01:05:24;9.90;99.90
28530;DHT22;15737;49.760;6.632;2023-08-08T01:08:04;9.80;99.90
28530;DHT22;15737;49.760;6.632;2023-08-08T01:13:17;9.80;99.90
28530;DHT22;15737;49.760;6.632;2023-08-08T01:15:45;9.80;99.90
28530;DHT22;15737;49.760;6.632;2023-08-08T01:18:11;9.80;99.90
28530;DHT22;15737;49.760;6.632;2023-08-08T01:20:37;9.70;99.90
28530;DHT22;15737;49.760;6.632;2023-08-08T01:23:09;9.70;99.90
28530;DHT22;15737;49.760;6.632;2023-08-08T01:25:35;9.70;99.90
28530;DHT22;15737;49.760;6.632;2023-08-08T01:28:01;9.70;99.90
28530;DHT22;15737;49.760;6.632;2023-08-08T01:30:28;9.70;99.90
28530;DHT22;15737;49.760;6.632;2023-08-08T01:32:53;9.60;99.90
28530;DHT22;15737;49.760;6.632;2023-08-08T01:35:19;9.50;99.90
28530;DHT22;15737;49.760;6.632;2023-08-08T01:37:54;9.50;99.90
28530;DHT22;15737;49.760;6.632;2023-08-08T01:40:23;9.50;99.90
28530;DHT22;15737;49.760;6.632;2023-08-08T01:42:50;9.50;99.90
28530;DHT22;15737;49.760;6.632;2023-08-08T01:45:16;9.60;99.90
28530;DHT22;15737;49.760;6.632;2023-08-08T01:47:42;9.50;99.90
28530;DHT22;15737;49.760;6.632;2023-08-08T01:50:08;9.50;99.90
28530;DHT22;15737;49.760;6.632;2023-08-08T01:52:34;9.50;99.90
28530;DHT22;15737;49.760;6.632;2023-08-08T01:55:00;9.50;99.90
28530;DHT22;15737;49.760;6.632;2023-08-08T01:57:25;9.50;99.90
28530;DHT22;15737;49.760;6.632;2023-08-08T01:59:51;9.50;99.90
28530;DHT22;15737;49.760;6.632;2023-08-08T02:02:17;9.50;99.90
28530;DHT22;15737;49.760;6.632;2023-08-08T02:04:43;9.60;99.90
28530;DHT22;15737;49.760;6.632;2023-08-08T02:07:09;9.60;99.90
28530;DHT22;15737;49.760;6.632;2023-08-08T02:09:34;9.60;99.90
28530;DHT22;15737;49.760;6.632;2023-08-08T02:12:00;9.50;99.90
28530;DHT22;15737;49.760;6.632;2023-08-08T02:14:25;9.50;99.90
28530;DHT22;15737;49.760;6.632;2023-08-08T02:16:51;9.40;99.90
28530;DHT22;15737;49.760;6.632;2023-08-08T02:19:16;9.40;99.90
28530;DHT22;15737;49.760;6.632;2023-08-08T02:21:42;9.40;99.90
28530;DHT22;15737;49.760;6.632;2023-08-08T02:24:07;9.30;99.90
28530;DHT22;15737;49.760;6.632;2023-08-08T02:26:33;9.30;99.90
28530;DHT22;15737;49.760;6.632;2023-08-08T02:28:59;9.30;99.90
28530;DHT22;15737;49.760;6.632;2023-08-08T02:31:24;9.30;99.90
28530;DHT22;15737;49.760;6.632;2023-08-08T02:33:50;9.30;99.90
28530;DHT22;15737;49.760;6.632;2023-08-08T02:36:17;9.30;99.90
28530;DHT22;15737;49.760;6.632;2023-08-08T02:38:42;9.20;99.90
28530;DHT22;15737;49.760;6.632;2023-08-08T02:41:11;9.20;99.90
28530;DHT22;15737;49.760;6.632;2023-08-08T02:43:36;9.30;99.90
28530;DHT22;15737;49.760;6.632;2023-08-08T02:46:02;9.30;99.90
28530;DHT22;15737;49.760;6.632;2023-08-08T02:48:30;9.20;99.90
28530;DHT22;15737;49.760;6.632;2023-08-08T02:50:56;9.20;99.90
28530;DHT22;15737;49.760;6.632;2023-08-08T02:53:22;9.10;99.90
28530;DHT22;15737;49.760;6.632;2023-08-08T02:55:47;9.10;99.90
28530;DHT22;15737;49.760;6.632;2023-08-08T02:58:13;9.10;99.90
28530;DHT22;15737;49.760;6.632;2023-08-08T03:00:38;9.10;99.90
28530;DHT22;15737;49.760;6.632;2023-08-08T03:03:04;9.00;99.90
28530;DHT22;15737;49.760;6.632;2023-08-08T03:05:29;9.10;99.90
28530;DHT22;15737;49.760;6.632;2023-08-08T03:07:55;9.10;99.90
28530;DHT22;15737;49.760;6.632;2023-08-08T03:10:20;9.10;99.90
28530;DHT22;15737;49.760;6.632;2023-08-08T03:12:46;9.00;99.90
28530;DHT22;15737;49.760;6.632;2023-08-08T03:15:11;9.00;99.90
28530;DHT22;15737;49.760;6.632;2023-08-08T03:17:37;8.90;99.90
28530;DHT22;15737;49.760;6.632;2023-08-08T03:20:03;8.90;99.90
28530;DHT22;15737;49.760;6.632;2023-08-08T03:22:31;8.90;99.90
28530;DHT22;15737;49.760;6.632;2023-08-08T03:24:57;8.90;99.90
28530;DHT22;15737;49.760;6.632;2023-08-08T03:27:22;8.90;99.90
28530;DHT22;15737;49.760;6.632;2023-08-08T03:29:48;8.90;99.90
28530;DHT22;15737;49.760;6.632;2023-08-08T03:32:13;9.00;99.90
28530;DHT22;15737;49.760;6.632;2023-08-08T03:34:39;8.90;99.90
28530;DHT22;15737;49.760;6.632;2023-08-08T03:37:04;9.00;99.90
28530;DHT22;15737;49.760;6.632;2023-08-08T03:39:30;9.00;99.90
28530;DHT22;15737;49.760;6.632;2023-08-08T03:41:56;8.90;99.90
28530;DHT22;15737;49.760;6.632;2023-08-08T03:44:21;8.90;99.90
28530;DHT22;15737;49.760;6.632;2023-08-08T03:46:47;8.90;99.90
28530;DHT22;15737;49.760;6.632;2023-08-08T03:49:12;8.90;99.90
28530;DHT22;15737;49.760;6.632;2023-08-08T03:51:38;8.80;99.90
28530;DHT22;15737;49.760;6.632;2023-08-08T03:56:34;8.80;99.90
28530;DHT22;15737;49.760;6.632;2023-08-08T03:58:59;8.80;99.90
28530;DHT22;15737;49.760;6.632;2023-08-08T04:01:25;8.80;99.90
28530;DHT22;15737;49.760;6.632;2023-08-08T04:03:50;8.80;99.90
28530;DHT22;15737;49.760;6.632;2023-08-08T04:06:16;8.80;99.90
28530;DHT22;15737;49.760;6.632;2023-08-08T04:08:41;8.80;99.90
28530;DHT22;15737;49.760;6.632;2023-08-08T04:11:07;8.80;99.90
28530;DHT22;15737;49.760;6.632;2023-08-08T04:13:32;8.80;99.90
28530;DHT22;15737;49.760;6.632;2023-08-08T04:15:58;8.70;99.90
28530;DHT22;15737;49.760;6.632;2023-08-08T04:18:23;8.70;99.90
28530;DHT22;15737;49.760;6.632;2023-08-08T04:20:49;8.70;99.90
28530;DHT22;15737;49.760;6.632;2023-08-08T04:23:14;8.70;99.90
28530;DHT22;15737;49.760;6.632;2023-08-08T04:25:40;8.60;99.90
28530;DHT22;15737;49.760;6.632;2023-08-08T04:28:05;8.60;99.90
28530;DHT22;15737;49.760;6.632;2023-08-08T04:30:31;8.60;99.90
28530;DHT22;15737;49.760;6.632;2023-08-08T04:32:56;8.70;99.90
28530;DHT22;15737;49.760;6.632;2023-08-08T04:35:22;8.80;99.90
28530;DHT22;15737;49.760;6.632;2023-08-08T04:37:47;9.00;99.90
28530;DHT22;15737;49.760;6.632;2023-08-08T04:40:13;9.10;99.90
28530;DHT22;15737;49.760;6.632;2023-08-08T04:42:39;9.30;99.90
28530;DHT22;15737;49.760;6.632;2023-08-08T04:45:05;9.50;99.90
28530;DHT22;15737;49.760;6.632;2023-08-08T04:47:31;9.70;99.90
28530;DHT22;15737;49.760;6.632;2023-08-08T04:49:56;10.00;99.90
28530;DHT22;15737;49.760;6.632;2023-08-08T04:52:22;10.30;99.90
28530;DHT22;15737;49.760;6.632;2023-08-08T04:54:48;10.60;99.90
28530;DHT22;15737;49.760;6.632;2023-08-08T04:57:13;10.90;99.90
28530;DHT22;15737;49.760;6.632;2023-08-08T04:59:39;11.30;99.90
28530;DHT22;15737;49.760;6.632;2023-08-08T05:02:04;11.70;99.90
28530;DHT22;15737;49.760;6.632;2023-08-08T05:04:30;12.20;99.90
28530;DHT22;15737;49.760;6.632;2023-08-08T05:06:56;12.50;99.90
28530;DHT22;15737;49.760;6.632;2023-08-08T05:09:23;12.90;99.90
28530;DHT22;15737;49.760;6.632;2023-08-08T05:11:52;13.30;99.90
28530;DHT22;15737;49.760;6.632;2023-08-08T05:14:17;13.80;99.90
28530;DHT22;15737;49.760;6.632;2023-08-08T05:16:43;14.50;99.90
28530;DHT22;15737;49.760;6.632;2023-08-08T05:19:08;15.00;99.90
28530;DHT22;15737;49.760;6.632;2023-08-08T05:21:34;15.10;99.90
28530;DHT22;15737;49.760;6.632;2023-08-08T05:24:00;15.60;99.90
28530;DHT22;15737;49.760;6.632;2023-08-08T05:26:25;16.10;99.90
28530;DHT22;15737;49.760;6.632;2023-08-08T05:28:51;16.50;99.90
28530;DHT22;15737;49.760;6.632;2023-08-08T05:31:16;16.90;99.90
28530;DHT22;15737;49.760;6.632;2023-08-08T05:33:42;17.20;99.90
28530;DHT22;15737;49.760;6.632;2023-08-08T05:36:07;17.40;99.90
28530;DHT22;15737;49.760;6.632;2023-08-08T05:38:33;18.00;99.90
28530;DHT22;15737;49.760;6.632;2023-08-08T05:40:58;18.50;99.90
28530;DHT22;15737;49.760;6.632;2023-08-08T05:43:24;18.90;99.90
28530;DHT22;15737;49.760;6.632;2023-08-08T05:45:49;19.40;99.90
28530;DHT22;15737;49.760;6.632;2023-08-08T05:48:15;19.80;99.90
28530;DHT22;15737;49.760;6.632;2023-08-08T05:50:41;19.60;99.90
28530;DHT22;15737;49.760;6.632;2023-08-08T05:53:06;19.90;99.90
28530;DHT22;15737;49.760;6.632;2023-08-08T05:55:32;20.80;99.90
28530;DHT22;15737;49.760;6.632;2023-08-08T05:58:01;22.10;99.90
28530;DHT22;15737;49.760;6.632;2023-08-08T06:00:26;23.00;99.90
28530;DHT22;15737;49.760;6.632;2023-08-08T06:02:52;24.00;99.60
28530;DHT22;15737;49.760;6.632;2023-08-08T06:05:17;24.90;97.80
28530;DHT22;15737;49.760;6.632;2023-08-08T06:07:43;25.00;95.30
28530;DHT22;15737;49.760;6.632;2023-08-08T06:10:10;25.70;93.90
28530;DHT22;15737;49.760;6.632;2023-08-08T06:12:35;26.60;92.00
28530;DHT22;15737;49.760;6.632;2023-08-08T06:15:01;27.20;90.70
28530;DHT22;15737;49.760;6.632;2023-08-08T06:17:26;27.80;87.40
28530;DHT22;15737;49.760;6.632;2023-08-08T06:19:52;26.90;87.30
28530;DHT22;15737;49.760;6.632;2023-08-08T06:22:19;25.90;88.60
28530;DHT22;15737;49.760;6.632;2023-08-08T06:24:45;25.40;90.90
28530;DHT22;15737;49.760;6.632;2023-08-08T06:27:10;26.40;88.50
28530;DHT22;15737;49.760;6.632;2023-08-08T06:29:36;25.40;89.80
28530;DHT22;15737;49.760;6.632;2023-08-08T06:32:01;23.50;91.60
28530;DHT22;15737;49.760;6.632;2023-08-08T06:34:27;20.90;94.70
28530;DHT22;15737;49.760;6.632;2023-08-08T06:36:52;19.30;98.50
28530;DHT22;15737;49.760;6.632;2023-08-08T06:39:24;18.00;99.90
28530;DHT22;15737;49.760;6.632;2023-08-08T06:42:14;17.20;99.90
28530;DHT22;15737;49.760;6.632;2023-08-08T06:44:56;16.60;99.90
28530;DHT22;15737;49.760;6.632;2023-08-08T06:47:38;16.30;99.90
28530;DHT22;15737;49.760;6.632;2023-08-08T06:50:26;15.90;99.90
28530;DHT22;15737;49.760;6.632;2023-08-08T06:53:09;15.90;99.90
28530;DHT22;15737;49.760;6.632;2023-08-08T06:55:53;15.80;99.90
28530;DHT22;15737;49.760;6.632;2023-08-08T06:58:31;15.70;99.90
28530;DHT22;15737;49.760;6.632;2023-08-08T07:01:04;15.90;99.90
28530;DHT22;15737;49.760;6.632;2023-08-08T07:03:30;16.00;99.90
28530;DHT22;15737;49.760;6.632;2023-08-08T07:05:57;16.30;99.90
28530;DHT22;15737;49.760;6.632;2023-08-08T07:08:25;16.80;99.90
28530;DHT22;15737;49.760;6.632;2023-08-08T07:10:58;17.50;99.90
28530;DHT22;15737;49.760;6.632;2023-08-08T07:13:29;17.80;99.90
28530;DHT22;15737;49.760;6.632;2023-08-08T07:15:54;17.20;99.90
28530;DHT22;15737;49.760;6.632;2023-08-08T07:18:20;16.20;99.90
28530;DHT22;15737;49.760;6.632;2023-08-08T07:20:45;15.80;99.90
28530;DHT22;15737;49.760;6.632;2023-08-08T07:23:11;16.20;99.90
28530;DHT22;15737;49.760;6.632;2023-08-08T07:25:48;17.80;99.90
28530;DHT22;15737;49.760;6.632;2023-08-08T07:28:32;21.70;99.90
28530;DHT22;15737;49.760;6.632;2023-08-08T07:31:08;23.80;99.80
28530;DHT22;15737;49.760;6.632;2023-08-08T07:33:51;23.90;97.50
28530;DHT22;15737;49.760;6.632;2023-08-08T07:36:31;22.10;99.50
28530;DHT22;15737;49.760;6.632;2023-08-08T07:39:13;20.80;99.90
28530;DHT22;15737;49.760;6.632;2023-08-08T07:42:00;21.00;99.90
28530;DHT22;15737;49.760;6.632;2023-08-08T07:44:35;21.40;99.90
28530;DHT22;15737;49.760;6.632;2023-08-08T07:47:12;22.10;99.90
28530;DHT22;15737;49.760;6.632;2023-08-08T07:49:49;23.00;97.50
28530;DHT22;15737;49.760;6.632;2023-08-08T07:52:14;22.80;98.20
28530;DHT22;15737;49.760;6.632;2023-08-08T07:54:40;22.90;97.20
28530;DHT22;15737;49.760;6.632;2023-08-08T07:57:05;23.10;96.40
28530;DHT22;15737;49.760;6.632;2023-08-08T07:59:31;21.80;97.70
28530;DHT22;15737;49.760;6.632;2023-08-08T08:01:56;22.20;98.30
28530;DHT22;15737;49.760;6.632;2023-08-08T08:04:22;23.30;96.30
28530;DHT22;15737;49.760;6.632;2023-08-08T08:06:47;23.00;96.80
28530;DHT22;15737;49.760;6.632;2023-08-08T08:09:13;23.80;94.40
28530;DHT22;15737;49.760;6.632;2023-08-08T08:11:38;23.50;94.40
28530;DHT22;15737;49.760;6.632;2023-08-08T08:14:04;23.60;94.90
28530;DHT22;15737;49.760;6.632;2023-08-08T08:16:29;24.20;93.40
28530;DHT22;15737;49.760;6.632;2023-08-08T08:18:55;23.60;93.80
28530;DHT22;15737;49.760;6.632;2023-08-08T08:21:20;23.60;94.10
28530;DHT22;15737;49.760;6.632;2023-08-08T08:23:46;22.80;95.30
28530;DHT22;15737;49.760;6.632;2023-08-08T08:26:11;22.30;95.80
28530;DHT22;15737;49.760;6.632;2023-08-08T08:28:40;21.80;96.80
28530;DHT22;15737;49.760;6.632;2023-08-08T08:31:07;22.10;96.20
28530;DHT22;15737;49.760;6.632;2023-08-08T08:33:34;21.00;97.50
28530;DHT22;15737;49.760;6.632;2023-08-08T08:35:59;20.70;99.10
28530;DHT22;15737;49.760;6.632;2023-08-08T08:38:25;20.20;99.30
28530;DHT22;15737;49.760;6.632;2023-08-08T08:40:54;19.40;99.90
28530;DHT22;15737;49.760;6.632;2023-08-08T08:43:21;19.10;99.90
28530;DHT22;15737;49.760;6.632;2023-08-08T08:45:51;19.10;99.90
28530;DHT22;15737;49.760;6.632;2023-08-08T08:48:18;19.00;99.90
28530;DHT22;15737;49.760;6.632;2023-08-08T08:50:46;19.20;99.90
28530;DHT22;15737;49.760;6.632;2023-08-08T08:53:13;19.40;99.90
28530;DHT22;15737;49.760;6.632;2023-08-08T08:55:40;19.20;99.90
28530;DHT22;15737;49.760;6.632;2023-08-08T08:58:06;19.40;99.90
28530;DHT22;15737;49.760;6.632;2023-08-08T09:00:33;20.10;99.90
28530;DHT22;15737;49.760;6.632;2023-08-08T09:02:59;19.90;99.90
28530;DHT22;15737;49.760;6.632;2023-08-08T09:05:28;20.50;99.60
28530;DHT22;15737;49.760;6.632;2023-08-08T09:07:54;22.70;96.30
28530;DHT22;15737;49.760;6.632;2023-08-08T09:10:20;24.40;93.70
28530;DHT22;15737;49.760;6.632;2023-08-08T09:12:46;24.60;92.00
28530;DHT22;15737;49.760;6.632;2023-08-08T09:15:12;23.50;92.60
28530;DHT22;15737;49.760;6.632;2023-08-08T09:17:42;23.60;90.80
28530;DHT22;15737;49.760;6.632;2023-08-08T09:20:09;23.50;90.90
28530;DHT22;15737;49.760;6.632;2023-08-08T09:22:36;24.30;90.30
28530;DHT22;15737;49.760;6.632;2023-08-08T09:25:03;26.10;85.80
28530;DHT22;15737;49.760;6.632;2023-08-08T09:27:28;27.10;79.80
28530;DHT22;15737;49.760;6.632;2023-08-08T09:29:54;26.30;77.50
28530;DHT22;15737;49.760;6.632;2023-08-08T09:32:20;25.90;79.60
28530;DHT22;15737;49.760;6.632;2023-08-08T09:34:45;26.90;77.30
28530;DHT22;15737;49.760;6.632;2023-08-08T09:37:11;29.00;71.90
28530;DHT22;15737;49.760;6.632;2023-08-08T09:39:37;28.80;68.40
28530;DHT22;15737;49.760;6.632;2023-08-08T09:42:03;27.80;70.90
28530;DHT22;15737;49.760;6.632;2023-08-08T09:44:30;25.50;76.40
28530;DHT22;15737;49.760;6.632;2023-08-08T09:46:57;24.80;78.10
28530;DHT22;15737;49.760;6.632;2023-08-08T09:49:23;23.80;80.00
28530;DHT22;15737;49.760;6.632;2023-08-08T09:51:51;22.70;83.80
28530;DHT22;15737;49.760;6.632;2023-08-08T09:54:16;22.80;83.50
28530;DHT22;15737;49.760;6.632;2023-08-08T09:56:42;24.30;80.40
28530;DHT22;15737;49.760;6.632;2023-08-08T09:59:09;24.30;80.00
28530;DHT22;15737;49.760;6.632;2023-08-08T10:01:36;23.10;83.20
28530;DHT22;15737;49.760;6.632;2023-08-08T10:04:06;22.00;85.40
28530;DHT22;15737;49.760;6.632;2023-08-08T10:06:31;22.50;85.10
28530;DHT22;15737;49.760;6.632;2023-08-08T10:08:57;23.10;80.30
28530;DHT22;15737;49.760;6.632;2023-08-08T10:11:24;23.30;80.00
28530;DHT22;15737;49.760;6.632;2023-08-08T10:13:53;24.00;78.70
28530;DHT22;15737;49.760;6.632;2023-08-08T10:16:19;23.80;77.70
28530;DHT22;15737;49.760;6.632;2023-08-08T10:18:45;23.40;79.50
28530;DHT22;15737;49.760;6.632;2023-08-08T10:21:12;23.70;78.20
28530;DHT22;15737;49.760;6.632;2023-08-08T10:26:18;23.90;76.90
28530;DHT22;15737;49.760;6.632;2023-08-08T10:28:58;23.10;79.10
28530;DHT22;15737;49.760;6.632;2023-08-08T10:31:24;22.40;80.80
28530;DHT22;15737;49.760;6.632;2023-08-08T10:33:49;22.00;81.80
28530;DHT22;15737;49.760;6.632;2023-08-08T10:36:15;22.10;81.40
28530;DHT22;15737;49.760;6.632;2023-08-08T10:38:43;22.20;81.10
28530;DHT22;15737;49.760;6.632;2023-08-08T10:41:11;22.10;81.10
28530;DHT22;15737;49.760;6.632;2023-08-08T10:43:37;22.00;82.60
28530;DHT22;15737;49.760;6.632;2023-08-08T10:46:04;22.00;82.90
28530;DHT22;15737;49.760;6.632;2023-08-08T10:48:30;21.70;83.30
28530;DHT22;15737;49.760;6.632;2023-08-08T10:50:59;21.70;83.80
28530;DHT22;15737;49.760;6.632;2023-08-08T10:56:03;22.30;81.50
28530;DHT22;15737;49.760;6.632;2023-08-08T10:58:40;22.40;81.30
28530;DHT22;15737;49.760;6.632;2023-08-08T11:01:06;22.80;79.70
28530;DHT22;15737;49.760;6.632;2023-08-08T11:03:35;22.50;80.30
28530;DHT22;15737;49.760;6.632;2023-08-08T11:06:01;22.40;80.50
28530;DHT22;15737;49.760;6.632;2023-08-08T11:08:30;22.60;80.00
28530;DHT22;15737;49.760;6.632;2023-08-08T11:10:57;22.50;80.00
28530;DHT22;15737;49.760;6.632;2023-08-08T11:13:22;22.50;81.20
28530;DHT22;15737;49.760;6.632;2023-08-08T11:15:48;23.10;78.70
28530;DHT22;15737;49.760;6.632;2023-08-08T11:18:13;23.50;78.30
28530;DHT22;15737;49.760;6.632;2023-08-08T11:20:39;23.50;77.40
28530;DHT22;15737;49.760;6.632;2023-08-08T11:23:05;23.00;78.00
28530;DHT22;15737;49.760;6.632;2023-08-08T11:25:49;23.00;77.70
28530;DHT22;15737;49.760;6.632;2023-08-08T11:28:15;22.90;77.70
28530;DHT22;15737;49.760;6.632;2023-08-08T11:30:43;22.40;79.40
28530;DHT22;15737;49.760;6.632;2023-08-08T11:33:12;22.00;81.60
28530;DHT22;15737;49.760;6.632;2023-08-08T11:35:38;22.20;81.50
28530;DHT22;15737;49.760;6.632;2023-08-08T11:38:13;22.30;81.40
28530;DHT22;15737;49.760;6.632;2023-08-08T11:40:48;22.30;81.30
28530;DHT22;15737;49.760;6.632;2023-08-08T11:43:14;22.00;81.50
28530;DHT22;15737;49.760;6.632;2023-08-08T11:45:39;21.70;82.90
28530;DHT22;15737;49.760;6.632;2023-08-08T11:48:07;21.50;84.40
28530;DHT22;15737;49.760;6.632;2023-08-08T11:50:34;21.60;85.10
28530;DHT22;15737;49.760;6.632;2023-08-08T11:53:03;21.40;85.70
28530;DHT22;15737;49.760;6.632;2023-08-08T11:55:28;20.80;86.90
28530;DHT22;15737;49.760;6.632;2023-08-08T11:57:56;20.20;89.40
28530;DHT22;15737;49.760;6.632;2023-08-08T12:00:27;19.90;90.60
28530;DHT22;15737;49.760;6.632;2023-08-08T12:02:53;20.10;90.70
28530;DHT22;15737;49.760;6.632;2023-08-08T12:05:21;20.70;90.30
28530;DHT22;15737;49.760;6.632;2023-08-08T12:07:48;21.30;89.20
28530;DHT22;15737;49.760;6.632;2023-08-08T12:10:17;21.20;89.40
28530;DHT22;15737;49.760;6.632;2023-08-08T12:12:44;21.10;90.00
28530;DHT22;15737;49.760;6.632;2023-08-08T12:15:11;20.90;90.20
28530;DHT22;15737;49.760;6.632;2023-08-08T12:17:37;20.60;90.40
28530;DHT22;15737;49.760;6.632;2023-08-08T12:22:41;19.90;92.30
28530;DHT22;15737;49.760;6.632;2023-08-08T12:25:07;19.60;92.90
28530;DHT22;15737;49.760;6.632;2023-08-08T12:27:33;19.40;93.50
28530;DHT22;15737;49.760;6.632;2023-08-08T12:29:59;19.20;94.10
28530;DHT22;15737;49.760;6.632;2023-08-08T12:32:26;19.00;94.30
28530;DHT22;15737;49.760;6.632;2023-08-08T12:34:53;19.00;94.70
28530;DHT22;15737;49.760;6.632;2023-08-08T12:37:19;19.10;94.70
28530;DHT22;15737;49.760;6.632;2023-08-08T12:39:47;19.10;94.90
28530;DHT22;15737;49.760;6.632;2023-08-08T12:42:13;19.00;95.30
28530;DHT22;15737;49.760;6.632;2023-08-08T12:44:38;19.00;95.50
28530;DHT22;15737;49.760;6.632;2023-08-08T12:47:04;19.10;95.60
28530;DHT22;15737;49.760;6.632;2023-08-08T12:49:29;19.20;95.70
28530;DHT22;15737;49.760;6.632;2023-08-08T12:51:55;19.20;95.80
28530;DHT22;15737;49.760;6.632;2023-08-08T12:54:21;19.30;96.00
28530;DHT22;15737;49.760;6.632;2023-08-08T12:56:47;20.00;95.50
28530;DHT22;15737;49.760;6.632;2023-08-08T12:59:12;20.70;94.40
28530;DHT22;15737;49.760;6.632;2023-08-08T13:01:38;21.10;93.40
28530;DHT22;15737;49.760;6.632;2023-08-08T13:04:04;21.00;93.40
28530;DHT22;15737;49.760;6.632;2023-08-08T13:06:29;21.10;93.20
28530;DHT22;15737;49.760;6.632;2023-08-08T13:08:55;20.90;93.30
28530;DHT22;15737;49.760;6.632;2023-08-08T13:11:21;20.50;93.80
28530;DHT22;15737;49.760;6.632;2023-08-08T13:13:47;20.30;94.30
28530;DHT22;15737;49.760;6.632;2023-08-08T13:16:12;20.20;95.00
28530;DHT22;15737;49.760;6.632;2023-08-08T13:18:38;19.90;95.30
28530;DHT22;15737;49.760;6.632;2023-08-08T13:21:03;19.70;95.90
28530;DHT22;15737;49.760;6.632;2023-08-08T13:23:29;19.30;96.30
28530;DHT22;15737;49.760;6.632;2023-08-08T13:25:55;19.00;97.00
28530;DHT22;15737;49.760;6.632;2023-08-08T13:28:21;18.90;97.50
28530;DHT22;15737;49.760;6.632;2023-08-08T13:30:47;18.80;97.90
28530;DHT22;15737;49.760;6.632;2023-08-08T13:33:12;18.70;98.20
28530;DHT22;15737;49.760;6.632;2023-08-08T13:35:38;18.70;98.50
28530;DHT22;15737;49.760;6.632;2023-08-08T13:38:03;18.60;98.90
28530;DHT22;15737;49.760;6.632;2023-08-08T13:40:29;18.50;99.30
28530;DHT22;15737;49.760;6.632;2023-08-08T13:42:54;18.40;99.60
28530;DHT22;15737;49.760;6.632;2023-08-08T13:45:20;18.40;99.80
28530;DHT22;15737;49.760;6.632;2023-08-08T13:47:46;18.40;99.90
28530;DHT22;15737;49.760;6.632;2023-08-08T13:50:13;18.70;99.90
28530;DHT22;15737;49.760;6.632;2023-08-08T13:52:41;19.10;99.90
28530;DHT22;15737;49.760;6.632;2023-08-08T13:55:07;19.90;99.10
28530;DHT22;15737;49.760;6.632;2023-08-08T13:57:34;20.90;98.30
28530;DHT22;15737;49.760;6.632;2023-08-08T14:00:00;22.50;96.90
28530;DHT22;15737;49.760;6.632;2023-08-08T14:02:25;23.50;94.40
28530;DHT22;15737;49.760;6.632;2023-08-08T14:04:51;23.10;92.80
28530;DHT22;15737;49.760;6.632;2023-08-08T14:07:18;22.60;93.00
28530;DHT22;15737;49.760;6.632;2023-08-08T14:09:43;22.10;93.60
28530;DHT22;15737;49.760;6.632;2023-08-08T14:12:09;21.60;94.00
28530;DHT22;15737;49.760;6.632;2023-08-08T14:14:34;21.30;94.30
28530;DHT22;15737;49.760;6.632;2023-08-08T14:17:00;21.00;94.50
28530;DHT22;15737;49.760;6.632;2023-08-08T14:19:25;20.80;95.10
28530;DHT22;15737;49.760;6.632;2023-08-08T14:21:51;20.70;95.10
28530;DHT22;15737;49.760;6.632;2023-08-08T14:24:16;20.50;95.60
28530;DHT22;15737;49.760;6.632;2023-08-08T14:26:42;20.60;95.80
28530;DHT22;15737;49.760;6.632;2023-08-08T14:29:07;20.70;95.80
28530;DHT22;15737;49.760;6.632;2023-08-08T14:31:33;21.10;95.60
28530;DHT22;15737;49.760;6.632;2023-08-08T14:36:27;21.20;95.40
28530;DHT22;15737;49.760;6.632;2023-08-08T14:38:53;21.50;95.30
28530;DHT22;15737;49.760;6.632;2023-08-08T14:41:18;21.40;95.30
28530;DHT22;15737;49.760;6.632;2023-08-08T14:43:44;21.40;95.20
28530;DHT22;15737;49.760;6.632;2023-08-08T14:46:09;21.60;94.80
28530;DHT22;15737;49.760;6.632;2023-08-08T14:48:35;21.60;94.30
28530;DHT22;15737;49.760;6.632;2023-08-08T14:51:02;21.70;94.60
28530;DHT22;15737;49.760;6.632;2023-08-08T14:53:28;21.80;94.50
28530;DHT22;15737;49.760;6.632;2023-08-08T14:55:54;21.90;94.30
28530;DHT22;15737;49.760;6.632;2023-08-08T14:58:19;21.50;94.60
28530;DHT22;15737;49.760;6.632;2023-08-08T15:00:45;21.40;95.20
28530;DHT22;15737;49.760;6.632;2023-08-08T15:03:10;21.50;95.20
28530;DHT22;15737;49.760;6.632;2023-08-08T15:05:36;21.50;94.80
28530;DHT22;15737;49.760;6.632;2023-08-08T15:08:02;21.50;95.30
28530;DHT22;15737;49.760;6.632;2023-08-08T15:10:28;21.40;94.70
28530;DHT22;15737;49.760;6.632;2023-08-08T15:12:53;21.00;95.00
28530;DHT22;15737;49.760;6.632;2023-08-08T15:15:19;20.60;95.00
28530;DHT22;15737;49.760;6.632;2023-08-08T15:17:48;20.30;95.60
28530;DHT22;15737;49.760;6.632;2023-08-08T15:20:14;20.10;96.00
28530;DHT22;15737;49.760;6.632;2023-08-08T15:22:39;20.00;96.20
28530;DHT22;15737;49.760;6.632;2023-08-08T15:25:05;20.00;96.20
28530;DHT22;15737;49.760;6.632;2023-08-08T15:27:30;19.90;95.90
28530;DHT22;15737;49.760;6.632;2023-08-08T15:29:57;19.90;96.30
28530;DHT22;15737;49.760;6.632;2023-08-08T15:32:22;20.10;96.20
28530;DHT22;15737;49.760;6.632;2023-08-08T15:34:48;20.30;96.00
28530;DHT22;15737;49.760;6.632;2023-08-08T15:37:13;20.30;95.60
28530;DHT22;15737;49.760;6.632;2023-08-08T15:39:39;20.20;95.80
28530;DHT22;15737;49.760;6.632;2023-08-08T15:42:05;20.20;95.90
28530;DHT22;15737;49.760;6.632;2023-08-08T15:44:31;20.30;96.10
28530;DHT22;15737;49.760;6.632;2023-08-08T15:46:56;20.30;96.30
28530;DHT22;15737;49.760;6.632;2023-08-08T15:49:22;20.30;96.30
28530;DHT22;15737;49.760;6.632;2023-08-08T15:51:48;20.30;96.40
28530;DHT22;15737;49.760;6.632;2023-08-08T15:54:13;20.30;96.40
28530;DHT22;15737;49.760;6.632;2023-08-08T15:56:39;20.10;96.50